sensor_id;sensor_type;location;lat;lon;timestamp;pressure;altitude;pressure_sealevel;temperature;humidity
7834;BME280;3962;42.696;23.354;2023-02-03T00:01:35;95390.31;;;3.22;76.65
7834;BME280;3962;42.696;23.354;2023-02-03T00:04:02;95396.69;;;3.18;76.69
7834;BME280;3962;42.696;23.354;2023-02-03T00:06:30;95378.81;;;3.11;77.81
7834;BME280;3962;42.696;23.354;2023-02-03T00:08:57;95390.47;;;3.07;77.84
7834;BME280;3962;42.696;23.354;2023-02-03T00:11:28;95399.28;;;3.06;78.62
7834;BME280;3962;42.696;23.354;2023-02-03T00:13:55;95407.59;;;3.00;79.26
7834;BME280;3962;42.696;23.354;2023-02-03T00:16:22;95408.31;;;3.02;79.66
7834;BME280;3962;42.696;23.354;2023-02-03T00:18:50;95415.69;;;3.09;79.37
7834;BME280;3962;42.696;23.354;2023-02-03T00:21:17;95414.09;;;3.07;79.88
7834;BME280;3962;42.696;23.354;2023-02-03T00:23:44;95412.44;;;3.06;79.60
7834;BME280;3962;42.696;23.354;2023-02-03T00:26:13;95410.44;;;3.09;80.70
7834;BME280;3962;42.696;23.354;2023-02-03T00:28:40;95419.84;;;3.13;80.63
7834;BME280;3962;42.696;23.354;2023-02-03T00:31:14;95411.81;;;3.15;80.63
7834;BME280;3962;42.696;23.354;2023-02-03T00:33:41;95414.19;;;3.19;80.41
7834;BME280;3962;42.696;23.354;2023-02-03T00:36:10;95419.53;;;3.18;80.25
7834;BME280;3962;42.696;23.354;2023-02-03T00:38:37;95425.13;;;3.26;80.23
7834;BME280;3962;42.696;23.354;2023-02-03T00:41:05;95429.25;;;3.42;80.49
7834;BME280;3962;42.696;23.354;2023-02-03T00:43:32;95429.25;;;3.42;80.05
7834;BME280;3962;42.696;23.354;2023-02-03T00:45:58;95433.78;;;3.40;80.29
7834;BME280;3962;42.696;23.354;2023-02-03T00:48:25;95436.53;;;3.39;80.36
7834;BME280;3962;42.696;23.354;2023-02-03T00:50:52;95446.94;;;3.40;80.54
7834;BME280;3962;42.696;23.354;2023-02-03T00:53:20;95439.56;;;3.33;81.29
7834;BME280;3962;42.696;23.354;2023-02-03T00:55:47;95436.16;;;2.92;82.35
7834;BME280;3962;42.696;23.354;2023-02-03T00:58:14;95441.66;;;2.87;83.61
7834;BME280;3962;42.696;23.354;2023-02-03T01:00:40;95441.41;;;2.92;83.61
7834;BME280;3962;42.696;23.354;2023-02-03T01:03:07;95446.97;;;2.73;84.77
7834;BME280;3962;42.696;23.354;2023-02-03T01:05:34;95446.97;;;2.73;85.41
7834;BME280;3962;42.696;23.354;2023-02-03T01:08:02;95450.38;;;2.61;85.62
7834;BME280;3962;42.696;23.354;2023-02-03T01:10:30;95451.75;;;2.81;85.21
7834;BME280;3962;42.696;23.354;2023-02-03T01:12:57;95462.19;;;2.68;85.95
7834;BME280;3962;42.696;23.354;2023-02-03T01:15:24;95450.44;;;2.74;86.07
7834;BME280;3962;42.696;23.354;2023-02-03T01:17:50;95453.34;;;2.69;86.34
7834;BME280;3962;42.696;23.354;2023-02-03T01:20:17;95446.50;;;2.67;85.53
7834;BME280;3962;42.696;23.354;2023-02-03T01:22:46;95444.84;;;2.52;85.99
7834;BME280;3962;42.696;23.354;2023-02-03T01:25:13;95434.59;;;2.61;86.71
7834;BME280;3962;42.696;23.354;2023-02-03T01:27:42;95424.75;;;2.65;86.18
7834;BME280;3962;42.696;23.354;2023-02-03T01:30:10;95433.19;;;2.70;84.89
7834;BME280;3962;42.696;23.354;2023-02-03T01:32:37;95418.81;;;2.75;84.55
7834;BME280;3962;42.696;23.354;2023-02-03T01:35:04;95430.31;;;2.60;84.61
7834;BME280;3962;42.696;23.354;2023-02-03T01:37:30;95441.25;;;2.67;83.72
7834;BME280;3962;42.696;23.354;2023-02-03T01:39:57;95445.47;;;2.69;84.18
7834;BME280;3962;42.696;23.354;2023-02-03T01:42:24;95441.59;;;2.75;84.42
7834;BME280;3962;42.696;23.354;2023-02-03T01:44:52;95452.53;;;2.55;83.93
7834;BME280;3962;42.696;23.354;2023-02-03T01:47:25;95446.47;;;2.40;83.89
7834;BME280;3962;42.696;23.354;2023-02-03T01:49:58;95457.78;;;2.55;84.36
7834;BME280;3962;42.696;23.354;2023-02-03T01:52:26;95457.88;;;2.53;84.15
7834;BME280;3962;42.696;23.354;2023-02-03T01:54:55;95453.41;;;2.41;83.44
7834;BME280;3962;42.696;23.354;2023-02-03T01:57:26;95462.78;;;2.45;84.33
7834;BME280;3962;42.696;23.354;2023-02-03T01:59:57;95466.13;;;2.47;84.05
7834;BME280;3962;42.696;23.354;2023-02-03T02:02:25;95454.22;;;2.56;84.09
7834;BME280;3962;42.696;23.354;2023-02-03T02:04:56;95456.78;;;2.43;82.58
7834;BME280;3962;42.696;23.354;2023-02-03T02:07:25;95458.16;;;2.35;83.95
7834;BME280;3962;42.696;23.354;2023-02-03T02:09:53;95458.81;;;2.38;83.24
7834;BME280;3962;42.696;23.354;2023-02-03T02:12:21;95462.84;;;2.44;83.46
7834;BME280;3962;42.696;23.354;2023-02-03T02:14:47;95455.16;;;2.55;83.16
7834;BME280;3962;42.696;23.354;2023-02-03T02:17:27;95454.59;;;2.36;83.64
7834;BME280;3962;42.696;23.354;2023-02-03T02:20:28;95464.28;;;2.49;82.88
7834;BME280;3962;42.696;23.354;2023-02-03T02:23:10;95457.44;;;2.47;83.11
7834;BME280;3962;42.696;23.354;2023-02-03T02:25:55;95453.19;;;2.44;82.88
7834;BME280;3962;42.696;23.354;2023-02-03T02:28:41;95466.25;;;2.32;82.05
7834;BME280;3962;42.696;23.354;2023-02-03T02:31:48;95479.09;;;2.36;82.11
7834;BME280;3962;42.696;23.354;2023-02-03T02:34:21;95472.63;;;2.56;82.22
7834;BME280;3962;42.696;23.354;2023-02-03T02:36:58;95474.22;;;2.44;82.03
7834;BME280;3962;42.696;23.354;2023-02-03T02:39:36;95486.41;;;2.31;82.76
7834;BME280;3962;42.696;23.354;2023-02-03T02:42:07;95490.53;;;2.49;82.51
7834;BME280;3962;42.696;23.354;2023-02-03T02:44:43;95489.97;;;2.44;82.71
7834;BME280;3962;42.696;23.354;2023-02-03T02:47:16;95472.91;;;2.37;82.92
7834;BME280;3962;42.696;23.354;2023-02-03T02:49:49;95479.19;;;2.35;82.92
7834;BME280;3962;42.696;23.354;2023-02-03T02:52:20;95483.31;;;2.39;82.02
7834;BME280;3962;42.696;23.354;2023-02-03T02:54:52;95490.72;;;2.32;83.11
7834;BME280;3962;42.696;23.354;2023-02-03T02:57:23;95472.44;;;2.45;82.60
7834;BME280;3962;42.696;23.354;2023-02-03T02:59:52;95483.69;;;2.47;82.57
7834;BME280;3962;42.696;23.354;2023-02-03T03:02:21;95479.00;;;2.24;82.17
7834;BME280;3962;42.696;23.354;2023-02-03T03:04:49;95469.91;;;2.29;82.97
7834;BME280;3962;42.696;23.354;2023-02-03T03:07:20;95489.31;;;2.41;82.99
7834;BME280;3962;42.696;23.354;2023-02-03T03:09:49;95492.13;;;2.38;82.03
7834;BME280;3962;42.696;23.354;2023-02-03T03:12:20;95482.56;;;2.37;82.31
7834;BME280;3962;42.696;23.354;2023-02-03T03:14:51;95477.03;;;2.41;81.04
7834;BME280;3962;42.696;23.354;2023-02-03T03:17:25;95480.13;;;2.34;80.33
7834;BME280;3962;42.696;23.354;2023-02-03T03:19:55;95497.19;;;2.41;81.15
7834;BME280;3962;42.696;23.354;2023-02-03T03:22:28;95495.88;;;2.34;80.41
7834;BME280;3962;42.696;23.354;2023-02-03T03:25:02;95497.75;;;2.32;80.33
7834;BME280;3962;42.696;23.354;2023-02-03T03:27:34;95501.75;;;2.23;79.64
7834;BME280;3962;42.696;23.354;2023-02-03T03:30:06;95508.53;;;2.27;80.50
7834;BME280;3962;42.696;23.354;2023-02-03T03:32:37;95502.41;;;2.27;79.86
7834;BME280;3962;42.696;23.354;2023-02-03T03:35:05;95513.69;;;2.29;79.22
7834;BME280;3962;42.696;23.354;2023-02-03T03:37:35;95506.72;;;2.28;79.37
7834;BME280;3962;42.696;23.354;2023-02-03T03:40:07;95513.69;;;2.15;79.46
7834;BME280;3962;42.696;23.354;2023-02-03T03:42:39;95509.84;;;2.20;78.74
7834;BME280;3962;42.696;23.354;2023-02-03T03:45:12;95520.06;;;2.25;78.99
7834;BME280;3962;42.696;23.354;2023-02-03T03:47:48;95515.44;;;2.14;79.19
7834;BME280;3962;42.696;23.354;2023-02-03T03:50:18;95513.31;;;2.21;79.32
7834;BME280;3962;42.696;23.354;2023-02-03T03:52:48;95522.59;;;2.26;79.12
7834;BME280;3962;42.696;23.354;2023-02-03T03:55:17;95506.75;;;2.14;78.20
7834;BME280;3962;42.696;23.354;2023-02-03T03:57:53;95516.66;;;2.09;78.67
7834;BME280;3962;42.696;23.354;2023-02-03T04:00:22;95516.94;;;2.04;79.00
7834;BME280;3962;42.696;23.354;2023-02-03T04:02:53;95523.88;;;2.05;79.47
7834;BME280;3962;42.696;23.354;2023-02-03T04:05:22;95532.03;;;2.01;79.30
7834;BME280;3962;42.696;23.354;2023-02-03T04:07:49;95536.16;;;2.05;80.10
7834;BME280;3962;42.696;23.354;2023-02-03T04:10:22;95526.19;;;1.96;80.21
7834;BME280;3962;42.696;23.354;2023-02-03T04:12:51;95528.22;;;1.77;80.91
7834;BME280;3962;42.696;23.354;2023-02-03T04:15:17;95540.19;;;1.81;81.36
7834;BME280;3962;42.696;23.354;2023-02-03T04:17:44;95539.03;;;1.86;81.64
7834;BME280;3962;42.696;23.354;2023-02-03T04:20:13;95549.50;;;1.86;80.45
7834;BME280;3962;42.696;23.354;2023-02-03T04:22:40;95557.28;;;1.88;81.47
7834;BME280;3962;42.696;23.354;2023-02-03T04:25:07;95555.50;;;1.88;81.46
7834;BME280;3962;42.696;23.354;2023-02-03T04:27:34;95574.19;;;1.98;80.81
7834;BME280;3962;42.696;23.354;2023-02-03T04:30:02;95557.06;;;2.06;81.29
7834;BME280;3962;42.696;23.354;2023-02-03T04:32:29;95574.66;;;2.04;80.70
7834;BME280;3962;42.696;23.354;2023-02-03T04:34:56;95572.78;;;2.06;80.44
7834;BME280;3962;42.696;23.354;2023-02-03T04:37:25;95572.66;;;1.94;80.00
7834;BME280;3962;42.696;23.354;2023-02-03T04:39:52;95582.06;;;1.98;81.21
7834;BME280;3962;42.696;23.354;2023-02-03T04:42:20;95589.41;;;2.07;80.99
7834;BME280;3962;42.696;23.354;2023-02-03T04:44:47;95592.09;;;2.05;80.76
7834;BME280;3962;42.696;23.354;2023-02-03T04:47:15;95592.84;;;2.07;79.93
7834;BME280;3962;42.696;23.354;2023-02-03T04:49:42;95603.06;;;2.12;79.74
7834;BME280;3962;42.696;23.354;2023-02-03T04:52:09;95603.75;;;2.15;80.24
7834;BME280;3962;42.696;23.354;2023-02-03T04:54:37;95604.72;;;2.28;79.76
7834;BME280;3962;42.696;23.354;2023-02-03T04:57:05;95592.53;;;2.27;79.98
7834;BME280;3962;42.696;23.354;2023-02-03T04:59:32;95598.53;;;2.29;79.72
7834;BME280;3962;42.696;23.354;2023-02-03T05:02:01;95605.66;;;2.27;80.13
7834;BME280;3962;42.696;23.354;2023-02-03T05:04:27;95602.97;;;2.29;79.25
7834;BME280;3962;42.696;23.354;2023-02-03T05:06:54;95615.84;;;2.18;79.28
7834;BME280;3962;42.696;23.354;2023-02-03T05:09:22;95615.94;;;2.16;79.53
7834;BME280;3962;42.696;23.354;2023-02-03T05:11:50;95622.56;;;2.08;79.76
7834;BME280;3962;42.696;23.354;2023-02-03T05:14:17;95615.19;;;2.14;80.11
7834;BME280;3962;42.696;23.354;2023-02-03T05:16:44;95614.69;;;2.08;80.23
7834;BME280;3962;42.696;23.354;2023-02-03T05:19:11;95624.47;;;2.20;79.66
7834;BME280;3962;42.696;23.354;2023-02-03T05:21:38;95638.25;;;2.23;80.33
7834;BME280;3962;42.696;23.354;2023-02-03T05:24:05;95629.72;;;2.20;79.65
7834;BME280;3962;42.696;23.354;2023-02-03T05:26:32;95636.41;;;2.25;79.32
7834;BME280;3962;42.696;23.354;2023-02-03T05:29:01;95644.28;;;2.25;79.62
7834;BME280;3962;42.696;23.354;2023-02-03T05:31:28;95634.91;;;2.21;79.63
7834;BME280;3962;42.696;23.354;2023-02-03T05:33:55;95638.31;;;2.37;79.50
7834;BME280;3962;42.696;23.354;2023-02-03T05:36:21;95626.81;;;2.10;78.92
7834;BME280;3962;42.696;23.354;2023-02-03T05:38:48;95631.44;;;2.21;80.06
7834;BME280;3962;42.696;23.354;2023-02-03T05:41:15;95630.78;;;2.17;79.19
7834;BME280;3962;42.696;23.354;2023-02-03T05:44:00;95626.19;;;2.21;79.26
7834;BME280;3962;42.696;23.354;2023-02-03T05:46:27;95625.41;;;2.19;78.84
7834;BME280;3962;42.696;23.354;2023-02-03T05:48:54;95633.13;;;2.36;80.37
7834;BME280;3962;42.696;23.354;2023-02-03T05:51:20;95638.06;;;2.12;79.49
7834;BME280;3962;42.696;23.354;2023-02-03T05:53:47;95645.97;;;1.97;79.35
7834;BME280;3962;42.696;23.354;2023-02-03T05:56:14;95645.13;;;1.96;80.47
7834;BME280;3962;42.696;23.354;2023-02-03T05:58:41;95644.63;;;1.90;79.78
7834;BME280;3962;42.696;23.354;2023-02-03T06:01:09;95640.28;;;2.04;79.59
7834;BME280;3962;42.696;23.354;2023-02-03T06:03:36;95653.31;;;2.06;80.10
7834;BME280;3962;42.696;23.354;2023-02-03T06:06:03;95652.38;;;2.07;80.38
7834;BME280;3962;42.696;23.354;2023-02-03T06:08:29;95650.50;;;2.09;79.67
7834;BME280;3962;42.696;23.354;2023-02-03T06:10:57;95650.16;;;2.15;79.64
7834;BME280;3962;42.696;23.354;2023-02-03T06:13:25;95650.84;;;2.18;78.89
7834;BME280;3962;42.696;23.354;2023-02-03T06:15:52;95648.69;;;2.25;78.78
7834;BME280;3962;42.696;23.354;2023-02-03T06:18:20;95658.91;;;2.29;78.40
7834;BME280;3962;42.696;23.354;2023-02-03T06:20:47;95647.47;;;2.30;77.72
7834;BME280;3962;42.696;23.354;2023-02-03T06:23:14;95659.16;;;2.40;77.89
7834;BME280;3962;42.696;23.354;2023-02-03T06:25:43;95663.28;;;2.44;77.95
7834;BME280;3962;42.696;23.354;2023-02-03T06:28:10;95660.72;;;2.43;77.45
7834;BME280;3962;42.696;23.354;2023-02-03T06:30:37;95667.59;;;2.45;77.09
7834;BME280;3962;42.696;23.354;2023-02-03T06:33:03;95669.94;;;2.50;77.34
7834;BME280;3962;42.696;23.354;2023-02-03T06:35:32;95683.19;;;2.48;76.80
7834;BME280;3962;42.696;23.354;2023-02-03T06:37:58;95684.50;;;2.55;77.26
7834;BME280;3962;42.696;23.354;2023-02-03T06:40:26;95689.38;;;2.61;75.96
7834;BME280;3962;42.696;23.354;2023-02-03T06:42:52;95693.69;;;2.62;76.32
7834;BME280;3962;42.696;23.354;2023-02-03T06:45:20;95701.31;;;2.67;75.98
7834;BME280;3962;42.696;23.354;2023-02-03T06:47:48;95700.59;;;2.79;76.01
7834;BME280;3962;42.696;23.354;2023-02-03T06:50:15;95707.50;;;2.95;74.81
7834;BME280;3962;42.696;23.354;2023-02-03T06:52:43;95712.34;;;3.01;74.31
7834;BME280;3962;42.696;23.354;2023-02-03T06:55:10;95712.81;;;2.94;74.78
7834;BME280;3962;42.696;23.354;2023-02-03T06:57:42;95712.56;;;3.12;74.67
7834;BME280;3962;42.696;23.354;2023-02-03T07:00:10;95713.78;;;3.35;73.08
7834;BME280;3962;42.696;23.354;2023-02-03T07:02:37;95706.94;;;3.04;72.79
7834;BME280;3962;42.696;23.354;2023-02-03T07:05:05;95715.75;;;3.17;73.27
7834;BME280;3962;42.696;23.354;2023-02-03T07:07:32;95706.06;;;3.04;72.97
7834;BME280;3962;42.696;23.354;2023-02-03T07:10:00;95697.09;;;3.08;73.03
7834;BME280;3962;42.696;23.354;2023-02-03T07:12:27;95688.41;;;3.06;73.55
7834;BME280;3962;42.696;23.354;2023-02-03T07:14:54;95698.47;;;2.99;73.17
7834;BME280;3962;42.696;23.354;2023-02-03T07:17:20;95704.09;;;3.07;73.65
7834;BME280;3962;42.696;23.354;2023-02-03T07:19:47;95704.03;;;3.09;73.53
7834;BME280;3962;42.696;23.354;2023-02-03T07:22:14;95691.88;;;2.92;73.08
7834;BME280;3962;42.696;23.354;2023-02-03T07:24:41;95690.38;;;3.02;73.44
7834;BME280;3962;42.696;23.354;2023-02-03T07:27:09;95684.75;;;3.08;73.09
7834;BME280;3962;42.696;23.354;2023-02-03T07:29:36;95705.78;;;3.08;73.48
7834;BME280;3962;42.696;23.354;2023-02-03T07:32:03;95692.84;;;3.05;73.18
7834;BME280;3962;42.696;23.354;2023-02-03T07:34:30;95707.19;;;3.14;73.50
7834;BME280;3962;42.696;23.354;2023-02-03T07:36:57;95688.06;;;3.26;72.42
7834;BME280;3962;42.696;23.354;2023-02-03T07:39:24;95696.13;;;3.37;71.94
7834;BME280;3962;42.696;23.354;2023-02-03T07:41:51;95699.63;;;3.37;72.01
7834;BME280;3962;42.696;23.354;2023-02-03T07:44:19;95703.56;;;3.44;71.87
7834;BME280;3962;42.696;23.354;2023-02-03T07:46:45;95710.06;;;3.39;71.15
7834;BME280;3962;42.696;23.354;2023-02-03T07:49:14;95719.44;;;3.42;70.91
7834;BME280;3962;42.696;23.354;2023-02-03T07:51:41;95706.09;;;3.18;71.42
7834;BME280;3962;42.696;23.354;2023-02-03T07:54:07;95715.47;;;3.36;70.68
7834;BME280;3962;42.696;23.354;2023-02-03T07:56:34;95716.50;;;3.47;70.96
7834;BME280;3962;42.696;23.354;2023-02-03T07:59:01;95701.97;;;3.55;70.60
7834;BME280;3962;42.696;23.354;2023-02-03T08:01:29;95691.72;;;3.37;70.48
7834;BME280;3962;42.696;23.354;2023-02-03T08:03:58;95698.88;;;3.35;70.24
7834;BME280;3962;42.696;23.354;2023-02-03T08:06:26;95701.19;;;3.53;70.12
7834;BME280;3962;42.696;23.354;2023-02-03T08:08:54;95696.13;;;3.64;70.05
7834;BME280;3962;42.696;23.354;2023-02-03T08:11:21;95720.53;;;3.66;69.69
7834;BME280;3962;42.696;23.354;2023-02-03T08:13:48;95721.28;;;3.68;69.73
7834;BME280;3962;42.696;23.354;2023-02-03T08:16:15;95708.31;;;3.79;69.74
7834;BME280;3962;42.696;23.354;2023-02-03T08:18:43;95719.00;;;3.76;68.33
7834;BME280;3962;42.696;23.354;2023-02-03T08:21:10;95724.59;;;4.12;68.76
7834;BME280;3962;42.696;23.354;2023-02-03T08:23:37;95730.28;;;4.19;68.36
7834;BME280;3962;42.696;23.354;2023-02-03T08:26:04;95714.97;;;4.25;68.10
7834;BME280;3962;42.696;23.354;2023-02-03T08:28:31;95730.16;;;4.34;67.37
7834;BME280;3962;42.696;23.354;2023-02-03T08:30:58;95722.78;;;4.39;66.18
7834;BME280;3962;42.696;23.354;2023-02-03T08:33:24;95734.78;;;4.31;66.60
7834;BME280;3962;42.696;23.354;2023-02-03T08:35:54;95731.97;;;4.20;66.43
7834;BME280;3962;42.696;23.354;2023-02-03T08:38:21;95738.56;;;4.53;65.93
7834;BME280;3962;42.696;23.354;2023-02-03T08:40:49;95733.97;;;5.71;63.78
7834;BME280;3962;42.696;23.354;2023-02-03T08:43:16;95744.94;;;7.30;56.00
7834;BME280;3962;42.696;23.354;2023-02-03T08:45:43;95746.03;;;7.28;54.95
7834;BME280;3962;42.696;23.354;2023-02-03T08:48:10;95752.78;;;7.32;54.66
7834;BME280;3962;42.696;23.354;2023-02-03T08:50:39;95756.09;;;7.23;54.91
7834;BME280;3962;42.696;23.354;2023-02-03T08:53:07;95746.28;;;7.02;56.50
7834;BME280;3962;42.696;23.354;2023-02-03T08:55:37;95767.91;;;7.97;54.91
7834;BME280;3962;42.696;23.354;2023-02-03T08:58:04;95756.34;;;8.42;52.03
7834;BME280;3962;42.696;23.354;2023-02-03T09:00:31;95747.44;;;8.32;51.80
7834;BME280;3962;42.696;23.354;2023-02-03T09:02:58;95762.13;;;8.36;51.95
7834;BME280;3962;42.696;23.354;2023-02-03T09:05:25;95756.25;;;8.86;51.29
7834;BME280;3962;42.696;23.354;2023-02-03T09:07:51;95750.09;;;8.21;52.55
7834;BME280;3962;42.696;23.354;2023-02-03T09:10:20;95745.50;;;8.01;52.62
7834;BME280;3962;42.696;23.354;2023-02-03T09:12:46;95744.84;;;7.32;55.26
7834;BME280;3962;42.696;23.354;2023-02-03T09:15:13;95742.50;;;8.06;54.48
7834;BME280;3962;42.696;23.354;2023-02-03T09:17:40;95749.34;;;7.86;52.87
7834;BME280;3962;42.696;23.354;2023-02-03T09:20:08;95741.25;;;7.44;55.30
7834;BME280;3962;42.696;23.354;2023-02-03T09:22:37;95726.94;;;7.57;54.96
7834;BME280;3962;42.696;23.354;2023-02-03T09:25:05;95743.81;;;7.11;56.07
7834;BME280;3962;42.696;23.354;2023-02-03T09:27:33;95739.78;;;6.48;57.06
7834;BME280;3962;42.696;23.354;2023-02-03T09:30:00;95745.53;;;6.06;57.65
7834;BME280;3962;42.696;23.354;2023-02-03T09:32:26;95754.88;;;6.82;58.20
7834;BME280;3962;42.696;23.354;2023-02-03T09:34:53;95740.28;;;7.00;56.41
7834;BME280;3962;42.696;23.354;2023-02-03T09:37:20;95755.09;;;6.19;57.97
7834;BME280;3962;42.696;23.354;2023-02-03T09:39:47;95746.72;;;6.61;58.41
7834;BME280;3962;42.696;23.354;2023-02-03T09:42:31;95752.44;;;6.79;58.57
7834;BME280;3962;42.696;23.354;2023-02-03T09:45:14;95746.81;;;6.00;58.98
7834;BME280;3962;42.696;23.354;2023-02-03T09:47:43;95735.78;;;6.19;60.13
7834;BME280;3962;42.696;23.354;2023-02-03T09:50:13;95752.00;;;6.85;58.02
7834;BME280;3962;42.696;23.354;2023-02-03T09:52:44;95744.34;;;6.46;56.55
7834;BME280;3962;42.696;23.354;2023-02-03T09:55:25;95748.44;;;6.26;58.87
7834;BME280;3962;42.696;23.354;2023-02-03T09:57:59;95741.47;;;6.25;57.86
7834;BME280;3962;42.696;23.354;2023-02-03T10:00:32;95751.78;;;6.05;57.83
7834;BME280;3962;42.696;23.354;2023-02-03T10:03:06;95733.41;;;5.91;58.72
7834;BME280;3962;42.696;23.354;2023-02-03T10:05:55;95731.53;;;5.80;57.75
7834;BME280;3962;42.696;23.354;2023-02-03T10:08:33;95732.88;;;5.98;56.26
7834;BME280;3962;42.696;23.354;2023-02-03T10:11:12;95733.00;;;6.20;56.92
7834;BME280;3962;42.696;23.354;2023-02-03T10:13:53;95726.09;;;6.07;55.83
7834;BME280;3962;42.696;23.354;2023-02-03T10:16:40;95720.63;;;6.33;54.91
7834;BME280;3962;42.696;23.354;2023-02-03T10:19:15;95723.16;;;6.35;55.33
7834;BME280;3962;42.696;23.354;2023-02-03T10:21:48;95711.47;;;6.50;54.63
7834;BME280;3962;42.696;23.354;2023-02-03T10:24:20;95711.31;;;5.92;55.66
7834;BME280;3962;42.696;23.354;2023-02-03T10:26:50;95710.41;;;5.55;56.77
7834;BME280;3962;42.696;23.354;2023-02-03T10:29:19;95720.13;;;5.30;56.73
7834;BME280;3962;42.696;23.354;2023-02-03T10:31:48;95717.69;;;5.27;57.77
7834;BME280;3962;42.696;23.354;2023-02-03T10:34:16;95711.03;;;5.59;57.03
7834;BME280;3962;42.696;23.354;2023-02-03T10:36:54;95712.19;;;5.67;55.62
7834;BME280;3962;42.696;23.354;2023-02-03T10:39:28;95702.69;;;5.77;55.56
7834;BME280;3962;42.696;23.354;2023-02-03T10:41:56;95713.22;;;6.02;55.15
7834;BME280;3962;42.696;23.354;2023-02-03T10:44:30;95707.91;;;6.38;54.06
7834;BME280;3962;42.696;23.354;2023-02-03T10:47:13;95719.31;;;6.15;53.99
7834;BME280;3962;42.696;23.354;2023-02-03T10:49:42;95723.47;;;5.94;56.23
7834;BME280;3962;42.696;23.354;2023-02-03T10:52:24;95721.59;;;5.84;56.42
7834;BME280;3962;42.696;23.354;2023-02-03T10:54:51;95726.56;;;5.63;55.93
7834;BME280;3962;42.696;23.354;2023-02-03T10:57:18;95723.38;;;5.46;53.16
7834;BME280;3962;42.696;23.354;2023-02-03T10:59:46;95708.50;;;5.45;54.54
7834;BME280;3962;42.696;23.354;2023-02-03T11:02:22;95708.53;;;5.20;53.77
7834;BME280;3962;42.696;23.354;2023-02-03T11:05:09;95701.34;;;5.22;54.68
7834;BME280;3962;42.696;23.354;2023-02-03T11:07:36;95701.88;;;5.14;53.92
7834;BME280;3962;42.696;23.354;2023-02-03T11:10:03;95702.59;;;5.29;53.71
7834;BME280;3962;42.696;23.354;2023-02-03T11:12:50;95707.66;;;5.07;54.91
7834;BME280;3962;42.696;23.354;2023-02-03T11:15:17;95699.97;;;5.04;53.39
7834;BME280;3962;42.696;23.354;2023-02-03T11:17:46;95702.50;;;5.05;53.65
7834;BME280;3962;42.696;23.354;2023-02-03T11:20:15;95699.22;;;5.02;54.04
7834;BME280;3962;42.696;23.354;2023-02-03T11:22:43;95703.78;;;5.12;53.55
7834;BME280;3962;42.696;23.354;2023-02-03T11:25:16;95689.50;;;4.90;54.11
7834;BME280;3962;42.696;23.354;2023-02-03T11:27:44;95688.47;;;5.17;54.25
7834;BME280;3962;42.696;23.354;2023-02-03T11:30:15;95672.97;;;5.13;54.22
7834;BME280;3962;42.696;23.354;2023-02-03T11:32:45;95680.38;;;5.08;53.16
7834;BME280;3962;42.696;23.354;2023-02-03T11:35:15;95685.00;;;5.17;53.29
7834;BME280;3962;42.696;23.354;2023-02-03T11:37:44;95693.66;;;5.31;53.25
7834;BME280;3962;42.696;23.354;2023-02-03T11:40:22;95678.78;;;5.05;53.30
7834;BME280;3962;42.696;23.354;2023-02-03T11:43:13;95683.50;;;4.88;54.72
7834;BME280;3962;42.696;23.354;2023-02-03T11:45:42;95682.09;;;4.70;55.44
7834;BME280;3962;42.696;23.354;2023-02-03T11:48:24;95673.56;;;4.66;55.00
7834;BME280;3962;42.696;23.354;2023-02-03T11:50:59;95673.34;;;4.69;54.34
7834;BME280;3962;42.696;23.354;2023-02-03T11:53:34;95660.31;;;4.80;53.93
7834;BME280;3962;42.696;23.354;2023-02-03T11:56:22;95666.00;;;4.99;52.74
7834;BME280;3962;42.696;23.354;2023-02-03T11:59:24;95659.03;;;4.98;52.26
7834;BME280;3962;42.696;23.354;2023-02-03T12:02:30;95665.34;;;5.21;51.34
7834;BME280;3962;42.696;23.354;2023-02-03T12:05:15;95672.63;;;5.30;50.76
7834;BME280;3962;42.696;23.354;2023-02-03T12:10:42;95665.56;;;5.43;49.46
7834;BME280;3962;42.696;23.354;2023-02-03T12:13:24;95662.81;;;5.57;49.21
7834;BME280;3962;42.696;23.354;2023-02-03T12:16:08;95653.28;;;5.79;48.52
7834;BME280;3962;42.696;23.354;2023-02-03T12:18:51;95654.13;;;5.80;48.90
7834;BME280;3962;42.696;23.354;2023-02-03T12:21:44;95670.25;;;5.88;47.52
7834;BME280;3962;42.696;23.354;2023-02-03T12:24:23;95647.03;;;6.16;48.50
7834;BME280;3962;42.696;23.354;2023-02-03T12:26:59;95657.59;;;6.16;47.73
7834;BME280;3962;42.696;23.354;2023-02-03T12:29:31;95658.94;;;6.22;46.44
7834;BME280;3962;42.696;23.354;2023-02-03T12:32:08;95665.47;;;5.93;47.47
7834;BME280;3962;42.696;23.354;2023-02-03T12:34:43;95666.88;;;5.86;46.21
7834;BME280;3962;42.696;23.354;2023-02-03T12:37:16;95647.59;;;5.60;46.61
7834;BME280;3962;42.696;23.354;2023-02-03T12:39:48;95662.44;;;5.74;46.38
7834;BME280;3962;42.696;23.354;2023-02-03T12:42:19;95656.22;;;5.75;45.98
7834;BME280;3962;42.696;23.354;2023-02-03T12:44:51;95655.72;;;5.82;47.52
7834;BME280;3962;42.696;23.354;2023-02-03T12:47:25;95648.41;;;5.61;47.49
7834;BME280;3962;42.696;23.354;2023-02-03T12:49:56;95646.69;;;5.36;48.29
7834;BME280;3962;42.696;23.354;2023-02-03T12:52:31;95653.03;;;5.70;48.58
7834;BME280;3962;42.696;23.354;2023-02-03T12:55:17;95648.97;;;5.53;48.37
7834;BME280;3962;42.696;23.354;2023-02-03T12:57:50;95651.97;;;5.24;48.72
7834;BME280;3962;42.696;23.354;2023-02-03T13:00:33;95630.75;;;5.25;49.40
7834;BME280;3962;42.696;23.354;2023-02-03T13:03:09;95616.31;;;5.06;49.98
7834;BME280;3962;42.696;23.354;2023-02-03T13:05:41;95622.66;;;5.16;50.47
7834;BME280;3962;42.696;23.354;2023-02-03T13:08:17;95623.91;;;5.10;51.13
7834;BME280;3962;42.696;23.354;2023-02-03T13:10:50;95627.59;;;4.95;52.16
7834;BME280;3962;42.696;23.354;2023-02-03T13:13:33;95634.53;;;4.71;52.54
7834;BME280;3962;42.696;23.354;2023-02-03T13:16:06;95626.44;;;4.74;51.30
7834;BME280;3962;42.696;23.354;2023-02-03T13:18:36;95600.06;;;4.99;50.43
7834;BME280;3962;42.696;23.354;2023-02-03T13:21:04;95622.19;;;5.47;50.20
7834;BME280;3962;42.696;23.354;2023-02-03T13:23:32;95624.72;;;5.36;50.01
7834;BME280;3962;42.696;23.354;2023-02-03T13:26:16;95621.81;;;5.03;52.17
7834;BME280;3962;42.696;23.354;2023-02-03T13:28:58;95624.03;;;4.96;52.66
7834;BME280;3962;42.696;23.354;2023-02-03T13:31:40;95625.06;;;5.06;52.19
7834;BME280;3962;42.696;23.354;2023-02-03T13:34:25;95621.50;;;5.68;52.46
7834;BME280;3962;42.696;23.354;2023-02-03T13:37:25;95600.16;;;6.07;49.65
7834;BME280;3962;42.696;23.354;2023-02-03T13:40:07;95610.94;;;5.81;49.55
7834;BME280;3962;42.696;23.354;2023-02-03T13:42:40;95611.34;;;6.11;49.20
7834;BME280;3962;42.696;23.354;2023-02-03T13:45:15;95621.97;;;5.98;49.10